Time;durP1;ratioP1;P1;durP2;ratioP2;P2;SDS_P1;SDS_P2;PMS_P1;PMS_P2;Temp;Humidity;BMP_temperature;BMP_pressure;BME280_temperature;BME280_humidity;BME280_pressure;Samples;Min_cycle;Max_cycle;Signal;HPM_P1;HPM_P2
2023/11/06 00:01:29;;;;;;;;;;;;;;;19.73;42.75;94345.91;10474855;28;2602;-54
2023/11/06 00:06:30;;;;;;;;;;;;;;;19.74;42.71;94351.94;10472166;28;2576;-56
2023/11/06 00:11:30;;;;;;;;;;;;;;;19.69;42.94;94352.84;10455171;28;2727;-55
2023/11/06 00:16:30;;;;;;;;;;;;;;;19.71;42.30;94357.78;10460576;28;2569;-56
2023/11/06 00:21:31;;;;;;;;;;;;;;;19.68;42.85;94366.28;10460933;28;2617;-52
2023/11/06 00:26:31;;;;;;;;;;;;;;;19.67;42.79;94367.34;10477844;28;2564;-54
2023/11/06 00:31:39;;;;;;;;;;;;;;;19.63;42.95;94379.53;10479118;28;2652;-52
2023/11/06 00:36:39;;;;;;;;;;;;;;;19.62;42.65;94383.28;10479717;28;2650;-53
2023/11/06 00:41:40;;;;;;;;;;;;;;;19.60;42.38;94383.53;10477116;28;2688;-56
2023/11/06 00:46:40;;;;;;;;;;;;;;;19.60;42.52;94385.41;10483441;28;5079;-55
2023/11/06 00:51:41;;;;;;;;;;;;;;;19.57;42.46;94399.16;10481164;28;2613;-56
2023/11/06 00:56:41;;;;;;;;;;;;;;;19.55;42.37;94425.72;10474848;28;2585;-55
2023/11/06 01:01:43;;;;;;;;;;;;;;;19.54;42.71;94431.28;10464477;28;2957;-55
2023/11/06 01:06:44;;;;;;;;;;;;;;;19.53;42.41;94435.00;10463777;28;2581;-56
2023/11/06 01:11:48;;;;;;;;;;;;;;;19.52;42.27;94430.78;10475617;28;2707;-53
2023/11/06 01:16:48;;;;;;;;;;;;;;;19.49;42.10;94435.56;10484591;28;2670;-56
2023/11/06 01:21:48;;;;;;;;;;;;;;;19.45;42.31;94429.34;10476944;28;2671;-52
2023/11/06 01:26:49;;;;;;;;;;;;;;;19.48;42.06;94430.63;10468787;28;2555;-55
2023/11/06 01:31:50;;;;;;;;;;;;;;;19.44;42.54;94438.31;10475047;28;2660;-54
2023/11/06 01:36:50;;;;;;;;;;;;;;;19.42;42.07;94440.47;10487846;28;2588;-55
2023/11/06 01:41:50;;;;;;;;;;;;;;;19.42;42.05;94444.94;10477007;28;2577;-56
2023/11/06 01:46:51;;;;;;;;;;;;;;;19.39;41.99;94456.81;10477981;28;4788;-56
2023/11/06 01:51:51;;;;;;;;;;;;;;;19.39;42.05;94453.44;10484449;28;2630;-53
2023/11/06 01:56:53;;;;;;;;;;;;;;;19.37;41.95;94472.09;10480868;28;2620;-55
2023/11/06 02:01:55;;;;;;;;;;;;;;;19.36;42.19;94467.16;10478201;28;2614;-53
2023/11/06 02:06:55;;;;;;;;;;;;;;;19.33;42.24;94473.78;10465627;28;2789;-54
2023/11/06 02:11:57;;;;;;;;;;;;;;;19.32;42.11;94474.84;10477125;28;2607;-55
2023/11/06 02:16:58;;;;;;;;;;;;;;;19.31;42.46;94481.16;10460747;28;2670;-55
2023/11/06 02:21:58;;;;;;;;;;;;;;;19.30;42.16;94486.69;10478034;28;2556;-55
2023/11/06 02:26:58;;;;;;;;;;;;;;;19.28;42.02;94500.16;10470775;28;2536;-56
2023/11/06 02:31:58;;;;;;;;;;;;;;;19.27;42.34;94487.28;10467983;28;2616;-56
2023/11/06 02:36:59;;;;;;;;;;;;;;;19.25;42.10;94492.84;10472111;28;2638;-54
2023/11/06 02:42:00;;;;;;;;;;;;;;;19.23;42.14;94500.22;10476629;28;2644;-54
2023/11/06 02:47:00;;;;;;;;;;;;;;;19.22;41.96;94501.31;10475363;28;4796;-55
2023/11/06 02:52:01;;;;;;;;;;;;;;;19.22;42.12;94505.78;10478106;28;2879;-54
2023/11/06 02:57:03;;;;;;;;;;;;;;;19.19;41.96;94520.28;10470997;28;2661;-56
2023/11/06 03:02:04;;;;;;;;;;;;;;;19.19;42.16;94533.41;10481126;28;2697;-54
2023/11/06 03:07:04;;;;;;;;;;;;;;;19.18;42.29;94537.13;10475150;28;2572;-51
2023/11/06 03:12:05;;;;;;;;;;;;;;;19.16;42.12;94541.91;10470563;28;2597;-53
2023/11/06 03:17:07;;;;;;;;;;;;;;;19.16;42.11;94551.63;10461503;28;2631;-56
2023/11/06 03:22:08;;;;;;;;;;;;;;;19.14;42.02;94545.88;10480012;28;2649;-55
2023/11/06 03:27:08;;;;;;;;;;;;;;;19.13;41.97;94552.19;10475846;28;2645;-55
2023/11/06 03:32:08;;;;;;;;;;;;;;;19.11;42.01;94560.38;10458325;28;2646;-55
2023/11/06 03:37:08;;;;;;;;;;;;;;;19.12;41.98;94558.53;10476929;28;2602;-55
2023/11/06 03:42:09;;;;;;;;;;;;;;;19.10;41.86;94564.06;10471835;28;4588;-55
2023/11/06 03:47:09;;;;;;;;;;;;;;;19.08;42.20;94568.81;10470816;28;2560;-54
2023/11/06 03:52:11;;;;;;;;;;;;;;;19.08;41.86;94562.81;10482100;28;2668;-56
2023/11/06 03:57:12;;;;;;;;;;;;;;;19.07;42.04;94571.75;10477973;28;2631;-54
2023/11/06 04:02:12;;;;;;;;;;;;;;;19.05;42.08;94566.78;10484920;28;2653;-54
2023/11/06 04:07:12;;;;;;;;;;;;;;;19.03;42.05;94574.19;10480708;28;2591;-54
2023/11/06 04:12:12;;;;;;;;;;;;;;;19.03;41.76;94568.16;10481945;28;2636;-55
2023/11/06 04:17:13;;;;;;;;;;;;;;;19.01;41.76;94571.06;10480083;28;2547;-54
2023/11/06 04:22:13;;;;;;;;;;;;;;;19.01;41.85;94573.69;10482171;28;2632;-54
2023/11/06 04:27:13;;;;;;;;;;;;;;;19.00;42.17;94576.63;10481312;28;2651;-56
2023/11/06 04:32:14;;;;;;;;;;;;;;;18.99;41.71;94572.44;10476937;28;2594;-56
2023/11/06 04:37:14;;;;;;;;;;;;;;;18.98;42.36;94570.88;10484924;28;2670;-54
2023/11/06 04:42:15;;;;;;;;;;;;;;;18.97;42.01;94577.97;10473976;28;4941;-54
2023/11/06 04:47:15;;;;;;;;;;;;;;;18.94;41.99;94581.19;10461739;28;2894;-56
2023/11/06 04:52:15;;;;;;;;;;;;;;;18.94;42.03;94586.44;10489256;28;2642;-56
2023/11/06 04:57:16;;;;;;;;;;;;;;;18.95;41.78;94592.47;10458811;28;2632;-55
2023/11/06 05:02:17;;;;;;;;;;;;;;;18.92;41.82;94593.81;10467295;28;2609;-56
2023/11/06 05:07:17;;;;;;;;;;;;;;;18.92;42.45;94596.44;10487055;28;2671;-55
2023/11/06 05:12:20;;;;;;;;;;;;;;;18.97;42.16;94590.31;10470167;28;2627;-55
2023/11/06 05:17:22;;;;;;;;;;;;;;;19.03;42.72;94604.91;10477095;28;2638;-56
2023/11/06 05:22:26;;;;;;;;;;;;;;;19.12;42.71;94609.22;10478932;28;2669;-53
2023/11/06 05:27:28;;;;;;;;;;;;;;;19.21;42.65;94615.34;10479088;28;2918;-55
2023/11/06 05:32:28;;;;;;;;;;;;;;;19.28;42.85;94621.00;10481481;28;2589;-55
2023/11/06 05:37:29;;;;;;;;;;;;;;;19.37;42.47;94618.50;10482960;28;2558;-56
2023/11/06 05:42:30;;;;;;;;;;;;;;;19.44;42.67;94632.00;10474049;28;4874;-54
2023/11/06 05:47:31;;;;;;;;;;;;;;;19.51;42.21;94642.13;10478927;28;2624;-55
2023/11/06 05:52:31;;;;;;;;;;;;;;;19.58;42.18;94658.31;10480156;28;2676;-55
2023/11/06 05:57:31;;;;;;;;;;;;;;;19.63;41.79;94650.31;10475061;28;2576;-55
2023/11/06 06:02:31;;;;;;;;;;;;;;;19.68;41.72;94661.50;10461425;28;2625;-54
2023/11/06 06:07:32;;;;;;;;;;;;;;;19.73;41.62;94673.75;10491747;28;2602;-56
2023/11/06 06:12:33;;;;;;;;;;;;;;;19.78;41.62;94676.31;10472548;28;2612;-55
2023/11/06 06:17:37;;;;;;;;;;;;;;;19.82;41.54;94674.66;10474455;28;2695;-56
2023/11/06 06:22:41;;;;;;;;;;;;;;;19.86;41.97;94686.13;10486242;28;2725;-54
2023/11/06 06:27:41;;;;;;;;;;;;;;;19.92;41.42;94698.88;10448540;28;2660;-55
2023/11/06 06:32:42;;;;;;;;;;;;;;;19.93;41.44;94703.06;10475377;28;2576;-56
2023/11/06 06:37:42;;;;;;;;;;;;;;;19.95;41.34;94700.13;10475067;28;2709;-56
2023/11/06 06:42:42;;;;;;;;;;;;;;;19.99;41.26;94711.66;10470310;28;4822;-57
2023/11/06 06:47:43;;;;;;;;;;;;;;;20.02;40.95;94714.47;10481371;28;2576;-58
2023/11/06 06:52:43;;;;;;;;;;;;;;;20.05;41.58;94718.34;10474691;28;2658;-56
2023/11/06 06:57:43;;;;;;;;;;;;;;;20.12;41.58;94724.78;10455093;28;2668;-58
2023/11/06 07:02:44;;;;;;;;;;;;;;;20.15;42.12;94728.69;10476152;28;2608;-57
2023/11/06 07:07:44;;;;;;;;;;;;;;;20.18;42.10;94738.59;10475932;28;2576;-59
2023/11/06 07:12:44;;;;;;;;;;;;;;;20.21;42.00;94746.72;10463465;28;2617;-59
2023/11/06 07:17:44;;;;;;;;;;;;;;;20.22;41.10;94758.00;10466488;28;2764;-55
2023/11/06 07:22:45;;;;;;;;;;;;;;;20.22;41.00;94763.28;10476131;28;2580;-58
2023/11/06 07:27:45;;;;;;;;;;;;;;;20.24;41.04;94766.38;10464380;28;2657;-56
2023/11/06 07:32:45;;;;;;;;;;;;;;;20.27;40.94;94773.72;10466343;28;2621;-56
2023/11/06 07:37:46;;;;;;;;;;;;;;;20.29;41.37;94784.72;10474149;28;2595;-56
2023/11/06 07:42:46;;;;;;;;;;;;;;;20.31;40.79;94777.31;10467063;28;4812;-56
2023/11/06 07:47:46;;;;;;;;;;;;;;;20.32;41.05;94794.63;10472122;28;2632;-55
2023/11/06 07:52:47;;;;;;;;;;;;;;;20.34;40.88;94797.75;10448972;28;2613;-53
2023/11/06 07:57:47;;;;;;;;;;;;;;;20.38;40.90;94804.00;10471549;28;2621;-55
2023/11/06 08:02:47;;;;;;;;;;;;;;;20.39;41.11;94817.94;10472563;28;2956;-54
2023/11/06 08:07:49;;;;;;;;;;;;;;;20.38;41.39;94819.78;10451456;28;2632;-55
2023/11/06 08:12:51;;;;;;;;;;;;;;;20.42;41.51;94831.31;10449512;28;2645;-55
2023/11/06 08:17:52;;;;;;;;;;;;;;;20.41;41.43;94832.38;10449035;28;2689;-54
2023/11/06 08:22:52;;;;;;;;;;;;;;;20.42;40.93;94835.78;10445901;28;2615;-56
2023/11/06 08:27:52;;;;;;;;;;;;;;;20.42;40.81;94831.31;10464835;28;2597;-55
2023/11/06 08:32:53;;;;;;;;;;;;;;;20.40;41.24;94845.84;10471751;28;2680;-53
2023/11/06 08:37:53;;;;;;;;;;;;;;;20.42;41.09;94862.13;10467838;28;2599;-57
2023/11/06 08:42:54;;;;;;;;;;;;;;;20.41;41.51;94857.91;10470259;28;4744;-56
2023/11/06 08:47:54;;;;;;;;;;;;;;;20.37;42.50;94870.88;10478680;28;2575;-55
2023/11/06 08:52:55;;;;;;;;;;;;;;;20.34;42.30;94874.09;10481434;28;2567;-56
2023/11/06 08:57:55;;;;;;;;;;;;;;;20.31;42.74;94882.59;10475067;28;2527;-54
2023/11/06 09:02:56;;;;;;;;;;;;;;;20.30;42.50;94891.53;10480001;28;2640;-57
2023/11/06 09:07:56;;;;;;;;;;;;;;;20.26;43.25;94899.25;10478937;28;2600;-57
2023/11/06 09:12:58;;;;;;;;;;;;;;;20.27;42.99;94902.66;10472706;28;2623;-58
2023/11/06 09:17:59;;;;;;;;;;;;;;;20.29;42.92;94921.56;10476985;28;2705;-56
2023/11/06 09:23:00;;;;;;;;;;;;;;;20.26;42.71;94916.88;10482599;28;2569;-56
2023/11/06 09:28:00;;;;;;;;;;;;;;;20.27;43.11;94923.72;10478563;28;2604;-58
2023/11/06 09:33:01;;;;;;;;;;;;;;;20.25;43.27;94920.59;10476758;28;2686;-57
2023/11/06 09:38:01;;;;;;;;;;;;;;;20.23;43.17;94923.53;10475104;28;2652;-59
2023/11/06 09:43:01;;;;;;;;;;;;;;;20.21;43.96;94933.56;10476034;28;4760;-58
2023/11/06 09:48:02;;;;;;;;;;;;;;;20.22;43.80;94931.69;10478474;28;2623;-56
2023/11/06 09:53:02;;;;;;;;;;;;;;;20.18;44.06;94934.09;10493370;28;2684;-58
2023/11/06 09:58:05;;;;;;;;;;;;;;;20.18;44.26;94933.31;10469213;28;2616;-57
2023/11/06 10:03:06;;;;;;;;;;;;;;;20.14;44.60;94948.13;10453861;28;2597;-58
2023/11/06 10:08:06;;;;;;;;;;;;;;;20.15;44.56;94936.53;10475184;28;2647;-57
2023/11/06 10:13:09;;;;;;;;;;;;;;;20.16;44.51;94927.56;10469089;28;2598;-58
2023/11/06 10:18:13;;;;;;;;;;;;;;;20.12;44.69;94921.31;10470066;28;2692;-58
2023/11/06 10:23:43;;;;;;;;;;;;;;;20.12;44.60;94924.72;10467561;28;2587;-58
2023/11/06 10:28:44;;;;;;;;;;;;;;;20.10;44.60;94918.97;10456769;28;2605;-57
2023/11/06 10:33:44;;;;;;;;;;;;;;;20.12;44.87;94921.31;10452518;28;2673;-58
2023/11/06 10:38:45;;;;;;;;;;;;;;;20.12;44.78;94923.94;10468938;28;3008;-58
2023/11/06 10:43:45;;;;;;;;;;;;;;;20.12;44.88;94916.03;10469326;28;4811;-56
2023/11/06 10:49:09;;;;;;;;;;;;;;;20.13;45.06;94912.38;10463560;28;2700;-55
2023/11/06 10:54:09;;;;;;;;;;;;;;;20.11;45.17;94910.00;10457994;28;2942;-58
2023/11/06 10:59:10;;;;;;;;;;;;;;;20.12;44.95;94906.31;10472484;28;2586;-58
2023/11/06 11:04:10;;;;;;;;;;;;;;;20.12;45.16;94910.78;10473326;28;2722;-57
2023/11/06 11:09:11;;;;;;;;;;;;;;;20.09;45.21;94912.13;10470904;28;2611;-56
2023/11/06 11:14:14;;;;;;;;;;;;;;;20.07;45.17;94910.91;10469349;28;2677;-56
2023/11/06 11:19:19;;;;;;;;;;;;;;;20.06;45.21;94907.47;10456579;28;2601;-58
2023/11/06 11:24:38;;;;;;;;;;;;;;;20.04;45.49;94914.09;10452850;28;2533;-55
2023/11/06 11:29:54;;;;;;;;;;;;;;;20.07;46.09;94898.50;10449956;28;2613;-59
2023/11/06 11:34:57;;;;;;;;;;;;;;;20.09;46.06;94906.88;10467836;28;2666;-59
2023/11/06 11:39:59;;;;;;;;;;;;;;;20.10;46.14;94902.41;10469910;28;2584;-59
2023/11/06 11:45:11;;;;;;;;;;;;;;;20.09;46.19;94906.13;10470884;28;4496;-59
2023/11/06 11:50:36;;;;;;;;;;;;;;;20.13;45.96;94907.09;10470818;28;2600;-56
2023/11/06 11:55:40;;;;;;;;;;;;;;;20.14;46.31;94903.38;10470612;28;2614;-57
2023/11/06 12:00:42;;;;;;;;;;;;;;;20.15;46.05;94904.97;10462357;28;2632;-56
2023/11/06 12:05:43;;;;;;;;;;;;;;;20.14;46.26;94900.75;10445047;28;2675;-57
2023/11/06 12:10:43;;;;;;;;;;;;;;;20.15;45.71;94902.31;10466773;28;2543;-55
2023/11/06 12:15:44;;;;;;;;;;;;;;;20.14;45.88;94909.44;10475227;28;2762;-55
2023/11/06 12:20:44;;;;;;;;;;;;;;;20.13;45.81;94910.50;10461505;28;2640;-57
2023/11/06 12:25:45;;;;;;;;;;;;;;;20.14;45.68;94911.28;10478222;28;2563;-58
2023/11/06 12:30:45;;;;;;;;;;;;;;;20.13;45.90;94907.09;10481629;28;2752;-58
2023/11/06 12:35:45;;;;;;;;;;;;;;;20.08;45.58;94910.59;10484163;28;2568;-57
2023/11/06 12:40:45;;;;;;;;;;;;;;;20.07;45.94;94913.53;10479154;28;2536;-57
2023/11/06 12:45:46;;;;;;;;;;;;;;;20.03;45.91;94913.31;10480467;28;4834;-58
2023/11/06 12:50:55;;;;;;;;;;;;;;;20.01;45.93;94915.44;10479133;28;2688;-58
2023/11/06 12:55:55;;;;;;;;;;;;;;;19.99;45.83;94920.22;10487364;28;2608;-57
2023/11/06 13:00:56;;;;;;;;;;;;;;;19.95;46.09;94916.59;10480195;28;2738;-57
2023/11/06 13:05:56;;;;;;;;;;;;;;;19.91;45.66;94923.50;10476086;28;2544;-57
2023/11/06 13:10:58;;;;;;;;;;;;;;;19.88;45.83;94916.22;10475618;28;2632;-58
2023/11/06 13:16:01;;;;;;;;;;;;;;;19.89;45.56;94912.50;10479764;28;2678;-57
2023/11/06 13:21:18;;;;;;;;;;;;;;;19.88;45.70;94920.69;10478676;28;2600;-57
2023/11/06 13:26:19;;;;;;;;;;;;;;;19.85;45.42;94923.88;10479659;28;2600;-53
2023/11/06 13:31:21;;;;;;;;;;;;;;;19.83;45.44;94928.66;10472930;28;2548;-58
2023/11/06 13:36:22;;;;;;;;;;;;;;;19.80;45.74;94937.13;10482482;28;2588;-58
2023/11/06 13:41:24;;;;;;;;;;;;;;;19.76;45.64;94929.03;10485160;28;2775;-58
2023/11/06 13:46:24;;;;;;;;;;;;;;;19.75;45.40;94930.09;10478832;28;4812;-58
2023/11/06 13:51:25;;;;;;;;;;;;;;;19.74;45.39;94933.03;10485149;28;2609;-56
2023/11/06 13:56:32;;;;;;;;;;;;;;;19.72;45.45;94922.75;10473207;28;2618;-58
2023/11/06 14:01:45;;;;;;;;;;;;;;;19.71;45.37;94925.69;10478266;28;2595;-58
2023/11/06 14:06:54;;;;;;;;;;;;;;;19.70;45.63;94918.88;10475088;28;2597;-58
2023/11/06 14:11:54;;;;;;;;;;;;;;;19.67;45.41;94924.69;10479823;28;2655;-58
2023/11/06 14:16:55;;;;;;;;;;;;;;;19.69;45.34;94933.09;10465933;28;2601;-58
2023/11/06 14:21:56;;;;;;;;;;;;;;;19.67;45.53;94935.22;10480283;28;2652;-57
2023/11/06 14:26:56;;;;;;;;;;;;;;;19.65;45.57;94934.72;10475228;28;2700;-55
2023/11/06 14:31:56;;;;;;;;;;;;;;;19.63;45.43;94923.72;10479768;28;2680;-57
2023/11/06 14:36:58;;;;;;;;;;;;;;;19.61;45.54;94924.00;10481032;28;2624;-57
2023/11/06 14:41:58;;;;;;;;;;;;;;;19.61;45.27;94924.00;10474521;28;2581;-57
2023/11/06 14:46:58;;;;;;;;;;;;;;;19.58;45.48;94934.31;10478891;28;4903;-56
2023/11/06 14:51:59;;;;;;;;;;;;;;;19.58;45.35;94926.44;10461545;28;2584;-55
2023/11/06 14:57:00;;;;;;;;;;;;;;;19.57;45.33;94927.50;10478150;28;2589;-57
2023/11/06 15:02:00;;;;;;;;;;;;;;;19.57;45.31;94924.88;10481618;28;2599;-57
2023/11/06 15:07:00;;;;;;;;;;;;;;;19.54;45.43;94933.34;10479878;28;2622;-54
2023/11/06 15:12:01;;;;;;;;;;;;;;;19.53;45.42;94934.38;10478113;28;2589;-56
2023/11/06 15:17:01;;;;;;;;;;;;;;;19.53;45.20;94934.38;10473937;28;2805;-57
2023/11/06 15:22:03;;;;;;;;;;;;;;;19.52;45.29;94943.31;10477320;28;2652;-56
2023/11/06 15:27:05;;;;;;;;;;;;;;;19.48;45.39;94938.66;10457256;28;2581;-57
2023/11/06 15:32:05;;;;;;;;;;;;;;;19.48;45.23;94937.88;10460300;28;2629;-57
2023/11/06 15:37:09;;;;;;;;;;;;;;;19.47;45.33;94947.59;10467764;28;2624;-57
2023/11/06 15:42:10;;;;;;;;;;;;;;;19.46;45.29;94937.38;10482323;28;4740;-54
2023/11/06 15:47:10;;;;;;;;;;;;;;;19.43;45.18;94941.34;10468138;28;2609;-57
2023/11/06 15:52:13;;;;;;;;;;;;;;;19.42;45.54;94945.06;10470918;28;2635;-56
2023/11/06 15:57:14;;;;;;;;;;;;;;;19.42;45.41;94954.78;10476822;28;2636;-56
2023/11/06 16:02:15;;;;;;;;;;;;;;;19.41;45.14;94950.59;10476500;28;2628;-57
2023/11/06 16:07:16;;;;;;;;;;;;;;;19.39;45.16;94948.25;10477611;28;2762;-55
2023/11/06 16:12:16;;;;;;;;;;;;;;;19.40;45.33;94956.91;10472718;28;2583;-57
2023/11/06 16:17:16;;;;;;;;;;;;;;;19.37;45.15;94952.25;10473990;28;2610;-55
2023/11/06 16:22:17;;;;;;;;;;;;;;;19.37;45.08;94968.75;10453968;28;2630;-55
2023/11/06 16:27:20;;;;;;;;;;;;;;;19.36;45.10;94985.63;10460007;28;2616;-57
2023/11/06 16:32:21;;;;;;;;;;;;;;;19.34;45.07;94990.38;10468032;28;2659;-55
2023/11/06 16:37:21;;;;;;;;;;;;;;;19.33;45.13;94999.31;10465167;28;2641;-55
2023/11/06 16:42:21;;;;;;;;;;;;;;;19.33;45.10;94999.31;10476721;28;4827;-56
2023/11/06 16:47:22;;;;;;;;;;;;;;;19.32;45.00;95004.81;10483737;28;2767;-54
2023/11/06 16:52:22;;;;;;;;;;;;;;;19.32;44.98;95013.50;10458665;28;2640;-54
2023/11/06 16:57:23;;;;;;;;;;;;;;;19.32;45.19;95012.72;10486152;28;2601;-55
2023/11/06 17:02:23;;;;;;;;;;;;;;;19.33;45.28;95022.16;10485096;28;2657;-55
2023/11/06 17:07:24;;;;;;;;;;;;;;;19.32;46.63;95018.75;10483472;28;2654;-55
2023/11/06 17:12:24;;;;;;;;;;;;;;;19.33;46.65;95020.34;10484231;28;2775;-56
2023/11/06 17:17:25;;;;;;;;;;;;;;;19.36;46.81;95026.88;10481084;28;2546;-56
2023/11/06 17:22:26;;;;;;;;;;;;;;;19.35;46.86;95038.47;10488562;28;2603;-57
2023/11/06 17:27:26;;;;;;;;;;;;;;;19.34;46.78;95037.69;10479873;28;2552;-57
2023/11/06 17:32:26;;;;;;;;;;;;;;;19.34;46.67;95045.56;10479981;28;2596;-57
2023/11/06 17:37:26;;;;;;;;;;;;;;;19.33;46.68;95043.97;10478720;28;2639;-56
2023/11/06 17:42:27;;;;;;;;;;;;;;;19.32;46.51;95050.28;10477707;28;4785;-56
2023/11/06 17:47:29;;;;;;;;;;;;;;;19.30;46.40;95057.66;10477733;28;2653;-57
2023/11/06 17:52:30;;;;;;;;;;;;;;;19.30;46.55;95059.50;10439873;28;2606;-57
2023/11/06 17:57:30;;;;;;;;;;;;;;;19.28;46.50;95062.44;10473665;28;2592;-56
2023/11/06 18:02:30;;;;;;;;;;;;;;;19.27;46.55;95065.31;10475272;28;2698;-57
2023/11/06 18:07:30;;;;;;;;;;;;;;;19.27;46.31;95076.59;10469035;28;2618;-56
2023/11/06 18:12:31;;;;;;;;;;;;;;;19.27;46.27;95084.50;10463186;28;2651;-57
2023/11/06 18:17:31;;;;;;;;;;;;;;;19.26;46.08;95085.56;10477307;28;2632;-58
2023/11/06 18:22:31;;;;;;;;;;;;;;;19.25;46.17;95096.34;10461679;28;2656;-58
2023/11/06 18:27:32;;;;;;;;;;;;;;;19.23;46.22;95098.47;10464254;28;2620;-57
2023/11/06 18:32:33;;;;;;;;;;;;;;;19.23;46.12;95107.13;10461249;28;2638;-57
2023/11/06 18:37:33;;;;;;;;;;;;;;;19.21;45.99;95117.16;10470433;28;2576;-55
2023/11/06 18:42:34;;;;;;;;;;;;;;;19.20;45.92;95125.31;10472104;28;4744;-57
2023/11/06 18:47:34;;;;;;;;;;;;;;;19.21;46.04;95134.75;10478413;28;2654;-56
2023/11/06 18:52:35;;;;;;;;;;;;;;;19.18;46.08;95140.56;10473514;28;2620;-57
2023/11/06 18:57:35;;;;;;;;;;;;;;;19.17;45.83;95133.75;10473916;28;2538;-57
2023/11/06 19:02:35;;;;;;;;;;;;;;;19.15;45.84;95149.78;10474403;28;2620;-57
2023/11/06 19:07:37;;;;;;;;;;;;;;;19.15;45.77;95160.31;10492026;28;2592;-56
2023/11/06 19:12:37;;;;;;;;;;;;;;;19.14;45.84;95164.00;10454894;28;2657;-56
2023/11/06 19:17:38;;;;;;;;;;;;;;;19.14;45.82;95185.03;10468375;28;2580;-57
2023/11/06 19:22:38;;;;;;;;;;;;;;;19.12;45.69;95176.63;10460570;28;2732;-55
2023/11/06 19:27:38;;;;;;;;;;;;;;;19.14;45.67;95185.03;10459036;28;2561;-57
2023/11/06 19:32:39;;;;;;;;;;;;;;;19.12;45.61;95187.16;10465559;28;2557;-56
2023/11/06 19:37:40;;;;;;;;;;;;;;;19.12;45.86;95189.78;10456854;28;2592;-57
2023/11/06 19:42:40;;;;;;;;;;;;;;;19.11;45.79;95193.44;10471922;28;4745;-58
2023/11/06 19:47:41;;;;;;;;;;;;;;;19.10;45.78;95198.97;10459720;28;2595;-58
2023/11/06 19:52:42;;;;;;;;;;;;;;;19.10;45.49;95206.88;10476162;28;2573;-58
2023/11/06 19:57:42;;;;;;;;;;;;;;;19.09;45.72;95213.97;10475929;28;2622;-57
2023/11/06 20:02:43;;;;;;;;;;;;;;;19.09;45.39;95219.22;10475965;28;2590;-59
2023/11/06 20:07:45;;;;;;;;;;;;;;;19.07;45.36;95215.28;10472922;28;2823;-56
2023/11/06 20:12:46;;;;;;;;;;;;;;;19.07;45.34;95218.69;10489934;28;2652;-59
2023/11/06 20:17:46;;;;;;;;;;;;;;;19.07;45.35;95225.78;10482361;28;2607;-58
2023/11/06 20:22:48;;;;;;;;;;;;;;;19.06;45.31;95234.75;10479673;28;2641;-57
2023/11/06 20:27:48;;;;;;;;;;;;;;;19.05;45.44;95236.59;10481711;28;2619;-57
2023/11/06 20:32:49;;;;;;;;;;;;;;;19.05;45.33;95243.66;10477478;28;2571;-59
2023/11/06 20:37:49;;;;;;;;;;;;;;;19.04;45.37;95247.38;10475585;28;2685;-58
2023/11/06 20:42:50;;;;;;;;;;;;;;;19.03;45.24;95259.72;10468765;28;4784;-58
2023/11/06 20:47:50;;;;;;;;;;;;;;;19.02;45.18;95260.00;10484777;28;2612;-58
2023/11/06 20:52:51;;;;;;;;;;;;;;;19.01;45.35;95272.34;10476027;28;2679;-58
2023/11/06 20:57:54;;;;;;;;;;;;;;;19.01;46.27;95282.84;10478867;28;2627;-55
2023/11/06 21:02:55;;;;;;;;;;;;;;;19.04;47.26;95295.41;10485076;28;2672;-61
2023/11/06 21:07:55;;;;;;;;;;;;;;;19.06;47.29;95313.56;10473337;28;2557;-57
2023/11/06 21:12:56;;;;;;;;;;;;;;;19.08;47.24;95324.56;10482444;28;2545;-57
2023/11/06 21:17:56;;;;;;;;;;;;;;;19.08;47.46;95341.09;10476131;28;2700;-58
2023/11/06 21:22:56;;;;;;;;;;;;;;;19.07;47.06;95347.41;10477899;28;2624;-54
2023/11/06 21:27:56;;;;;;;;;;;;;;;19.08;46.96;95369.22;10483941;28;2598;-53
2023/11/06 21:32:57;;;;;;;;;;;;;;;19.08;46.76;95371.84;10477778;28;2683;-57
2023/11/06 21:37:57;;;;;;;;;;;;;;;19.06;46.79;95371.34;10474782;28;2606;-55
2023/11/06 21:42:58;;;;;;;;;;;;;;;19.04;46.64;95376.09;10478911;28;4730;-56
2023/11/06 21:47:58;;;;;;;;;;;;;;;19.05;46.54;95382.91;10473658;28;2620;-56
2023/11/06 21:52:59;;;;;;;;;;;;;;;19.03;46.38;95388.44;10481006;28;2545;-56
2023/11/06 21:57:59;;;;;;;;;;;;;;;19.04;46.05;95387.34;10477953;28;2669;-56
2023/11/06 22:03:02;;;;;;;;;;;;;;;19.03;46.08;95393.69;10456398;28;2548;-55
2023/11/06 22:08:03;;;;;;;;;;;;;;;19.01;45.97;95393.16;10480352;28;2596;-57
2023/11/06 22:13:03;;;;;;;;;;;;;;;19.01;46.20;95387.91;10458724;28;2618;-55
2023/11/06 22:18:03;;;;;;;;;;;;;;;18.99;46.33;95395.28;10468786;28;2585;-57
2023/11/06 22:23:04;;;;;;;;;;;;;;;18.99;45.99;95378.72;10475265;28;2636;-58
2023/11/06 22:28:04;;;;;;;;;;;;;;;18.98;45.89;95387.69;10480190;28;2584;-55
2023/11/06 22:33:05;;;;;;;;;;;;;;;18.98;46.24;95382.44;10478062;28;2668;-56
2023/11/06 22:38:05;;;;;;;;;;;;;;;18.96;46.10;95398.44;10473365;28;2665;-55
2023/11/06 22:43:05;;;;;;;;;;;;;;;18.97;45.89;95400.03;10472182;28;4748;-56
2023/11/06 22:48:05;;;;;;;;;;;;;;;18.96;45.94;95406.31;10473996;28;2617;-58
2023/11/06 22:53:07;;;;;;;;;;;;;;;18.94;46.02;95411.06;10478535;28;2660;-57
2023/11/06 22:58:08;;;;;;;;;;;;;;;18.94;45.69;95415.53;10473162;28;2634;-56
2023/11/06 23:03:12;;;;;;;;;;;;;;;18.93;46.02;95425.25;10475286;28;2752;-56
2023/11/06 23:08:12;;;;;;;;;;;;;;;18.92;45.74;95423.69;10457096;28;2565;-55
2023/11/06 23:13:13;;;;;;;;;;;;;;;18.90;45.94;95417.91;10477145;28;2560;-57
2023/11/06 23:18:13;;;;;;;;;;;;;;;18.91;45.36;95416.88;10477565;28;2653;-57
2023/11/06 23:23:13;;;;;;;;;;;;;;;18.90;45.91;95417.91;10475266;28;2866;-57
2023/11/06 23:28:14;;;;;;;;;;;;;;;18.89;45.92;95403.22;10477861;28;2605;-56
2023/11/06 23:33:14;;;;;;;;;;;;;;;18.88;45.75;95417.41;10453954;28;2583;-56
2023/11/06 23:38:15;;;;;;;;;;;;;;;18.88;45.68;95432.34;10476894;28;2636;-56
2023/11/06 23:43:15;;;;;;;;;;;;;;;18.87;45.49;95431.59;10478335;28;4749;-57
2023/11/06 23:48:15;;;;;;;;;;;;;;;18.86;45.72;95432.63;10478364;28;2692;-57
2023/11/06 23:53:16;;;;;;;;;;;;;;;18.86;45.81;95442.34;10463894;28;2566;-57
2023/11/06 23:58:17;;;;;;;;;;;;;;;18.85;45.44;95438.97;10475804;28;2569;-57
